Colfax, Iowa
Current Conditions -  °F | °C
As of 3:15 PM on Saturday 20 Dec 2014 (Local Time) from KTNU Reporting Station
Haze Haze  
Wind Chill: 27°   Ceiling: 300
Heat Index: 34°   Visibility: 1.5mi
Dew Point: 34°   Wind: 8mph
Humidity: 100%   Direction: 140°SE
Pressure: 30.13"   Gusts: NA
Location:  41.68°N, 93.25°W
Report Text: KTNU 202115Z AUTO 14007KT 1 1/2SM BR OVC003 01/01 A3013 RMK AO2
Loading
Personal Weather Stations






























Interactive Weather Map New forecast layout! Learn more

10-Day Weather Forecast

Advertisements
Track Severe Weather on mobile